Flight Track Log - Related Links

Times and Time Zones

All times are in EDT time to prevent confusion due to time zone crossing. See the N724AE flight status page for this flight to view local times or setup timezone preferences in your user account.

Time Position Orientation Groundspeed Altitude Reporting Facility
EDT Latitude Longitude Course Direction KTS MPH feet Rate Location/Type
Tue 07:13:20 PM 32.2311 -90.0700 270° West 207 238 4,100  Level Memphis Center
Tue 07:14:00 PM 32.3338 -90.3716 276° West  Level FlightAware Approximate
Tue 07:14:20 PM 32.2353 -90.1339 274° West 217 250 7,200  Level Memphis Center
Tue 07:15:00 PM 32.3432 -90.4751 276° West  Level FlightAware Approximate
Tue 07:15:20 PM 32.2500 -90.2050 284° West 217 250 9,700  Level Memphis Center
Tue 07:16:00 PM 32.3547 -90.5783 281° West  Level FlightAware Approximate
Tue 07:16:20 PM 32.2606 -90.2836 279° West 230 265 12,300  Level Memphis Center
Tue 07:17:00 PM 32.3718 -90.6804 281° West  Level FlightAware Approximate
Tue 07:17:20 PM 32.2711 -90.3622 279° West 242 278 15,100  Level Memphis Center
Tue 07:18:00 PM 32.3833 -90.7833 270° West  Level FlightAware Approximate
Tue 07:18:20 PM 32.2753 -90.4433 273° West 242 278 17,200  Level Memphis Center
Tue 07:19:20 PM 32.2794 -90.5269 273° West 248 285 19,700 2,350 Climbing Memphis Center
Tue 07:20:20 PM 32.2833 -90.6106 273° West 253 291 21,900 2,250 Climbing Memphis Center
Tue 07:21:20 PM 32.2872 -90.6964 273° West 258 297 24,200 2,300 Climbing Memphis Center
Tue 07:22:20 PM 32.2914 -90.7825 273° West 258 297 26,500 2,150 Climbing Memphis Center
Tue 07:23:20 PM 32.2972 -90.8661 275° West 258 297 28,500 1,750 Climbing Memphis Center
Tue 07:24:20 PM 32.2989 -90.9519 271° West 258 297 30,000 750 Climbing Memphis Center
Tue 07:25:20 PM 32.3047 -91.0481 274° West 277 319 30,000  Level Memphis Center
Tue 07:26:57 PM 32.3139 -91.2175 274° West 335 386 30,000  Level Houston Center
Tue 07:27:58 PM 32.3189 -91.3311 273° West 346 398 30,000  Level Houston Center
Tue 07:29:00 PM 32.3231 -91.4453 273° West 350 403 30,000 919 Level Houston Center
Tue 07:30:02 PM 32.3289 -91.5594 273° West 350 403 31,900 1,935 Climbing Houston Center
Tue 07:31:04 PM 32.3347 -91.6942 273° West 344 396 34,000 1,016 Climbing Houston Center
Tue 07:32:06 PM 32.3394 -91.8086 273° West 349 402 34,000  Level Houston Center
Tue 07:33:08 PM 32.3433 -91.9256 272° West 356 410 34,000  Level Houston Center
Tue 07:34:10 PM 32.3467 -92.0506 272° West 367 422 34,000  Level Houston Center
Tue 07:35:12 PM 32.3433 -92.1681 268° West 361 415 34,000  Level Houston Center
Tue 07:36:14 PM 32.3406 -92.2853 268° West 359 413 34,000  Level Houston Center
Tue 07:37:15 PM 32.3372 -92.4019 268° West 358 412 34,000  Level Houston Center
Tue 07:38:17 PM 32.3347 -92.5183 269° West 356 410 34,000 -48 Level Houston Center
Tue 07:39:19 PM 32.3308 -92.6578 268° West 356 410 33,900  Descending Houston Center
Tue 07:40:21 PM 32.3281 -92.7694 268° West 356 410 34,000 45 Climbing Houston Center
Tue 07:41:31 PM 32.3269 -92.9119 270° West 367 422 34,000  Level Fort Worth Center
Tue 07:42:32 PM 32.3228 -93.0303 268° West 367 422 34,000  Level Fort Worth Center
Tue 07:43:31 PM 32.3167 -93.1511 267° West 359 413 34,000  Level Fort Worth Center
Tue 07:44:31 PM 32.3142 -93.2692 269° West 354 407 34,000  Level Fort Worth Center
Tue 07:45:32 PM 32.3100 -93.3922 268° West 365 420 34,000  Level Fort Worth Center
Tue 07:46:31 PM 32.3053 -93.5103 267° West 365 420 34,000  Level Fort Worth Center
Tue 07:47:31 PM 32.3006 -93.6286 267° West 370 426 34,000  Level Fort Worth Center
Tue 07:48:31 PM 32.2958 -93.7467 267° West 370 426 34,000  Level Fort Worth Center
Tue 07:49:32 PM 32.2928 -93.8672 268° West 370 426 34,000  Level Fort Worth Center
Tue 07:50:31 PM 32.2856 -93.9828 266° West 364 419 34,000  Level Fort Worth Center
Tue 07:51:31 PM 32.2828 -94.1058 269° West 369 425 34,000  Level Fort Worth Center
Tue 07:52:31 PM 32.2775 -94.2264 267° West 369 425 34,000  Level Fort Worth Center
Tue 07:53:31 PM 32.2742 -94.3469 268° West 369 425 34,000  Level Fort Worth Center
Tue 07:54:31 PM 32.2664 -94.4603 265° West 369 425 34,000  Level Fort Worth Center
Tue 07:56:31 PM 32.2550 -94.6989 267° West 369 425 34,000  Level Fort Worth Center
Tue 07:57:32 PM 32.2514 -94.8194 268° West 364 419 34,000  Level Fort Worth Center
Tue 07:58:31 PM 32.2453 -94.9350 266° West 364 419 34,000  Level Fort Worth Center
Tue 07:59:31 PM 32.2456 -95.0578 270° West 364 419 34,000  Level Fort Worth Center
Tue 08:00:32 PM 32.2414 -95.1733 268° West 364 419 34,000  Level Fort Worth Center
Tue 08:01:31 PM 32.2331 -95.2914 265° West 364 419 34,000  Level Fort Worth Center
Tue 08:02:31 PM 32.2267 -95.4119 266° West 364 419 34,000 -50 Level Fort Worth Center
Tue 08:03:32 PM 32.2222 -95.5275 267° West 359 413 33,900 -893 Descending Fort Worth Center
Tue 08:04:32 PM 32.2178 -95.6431 267° West 364 419 32,200 -1,815 Descending Fort Worth Center
Tue 08:05:31 PM 32.2108 -95.7608 266° West 362 417 30,300 -1,950 Descending Fort Worth Center
Tue 08:06:32 PM 32.2042 -95.8814 266° West 362 417 28,300 -1,850 Descending Fort Worth Center
Tue 08:07:31 PM 32.1992 -95.9869 267° West 362 417 26,600 -1,850 Descending Fort Worth Center
Tue 08:08:32 PM 32.1919 -96.1050 266° West 367 422 24,600 -2,132 Descending Fort Worth Center
Tue 08:09:32 PM 32.1994 -96.2250 274° West 367 422 22,300 -2,450 Descending Fort Worth Center
Tue 08:10:32 PM 32.2733 -96.3275 310° West 353 406 19,700 -2,622 Descending Fort Worth Center
Tue 08:11:31 PM 32.3408 -96.4028 317° Northwest 365 420 17,100 -2,700 Descending Fort Worth Center
Tue 08:12:32 PM 32.4167 -96.4931 315° West 365 420 14,300 -2,350 Descending Fort Worth Center
Tue 08:13:31 PM 32.4778 -96.5664 315° West 353 406 12,400 -1,664 Descending Fort Worth Center
Tue 08:14:31 PM 32.5472 -96.6494 315° West 327 376 11,000 -694 Descending Fort Worth Center
Tue 08:15:32 PM 32.6019 -96.7156 315° West 320 368 11,000  Level Fort Worth Center
Tue 08:16:31 PM 32.6733 -96.7964 316° Northwest 320 368 11,000  Level Fort Worth Center
Tue 08:17:26 PM 32.7167 -96.8500 314° West 276 318 11,000  Level Dallas / Fort Worth TRACON
Tue 08:18:26 PM 32.7667 -96.9167 312° West 256 295 11,000 -450 Level Dallas / Fort Worth TRACON
Tue 08:19:26 PM 32.8167 -96.9833 312° West 253 291 10,100 -1,143 Descending Dallas / Fort Worth TRACON
Tue 08:20:32 PM 32.8500 -97.0667 295° West 255 293 8,600 -1,571 Descending Dallas / Fort Worth TRACON
Tue 08:21:32 PM 32.8667 -97.1333 287° West 246 283 6,800 -1,950 Descending Dallas / Fort Worth TRACON
Tue 08:22:32 PM 32.9000 -97.2167 295° West 250 288 4,700 -1,765 Descending Dallas / Fort Worth TRACON
Tue 08:23:31 PM 32.9503 -97.2450 335° Northwest 226 260 3,300 -850 Descending Fort Worth Center
Tue 08:24:32 PM 33.0044 -97.2128 27° Northeast 217 250 3,000 -295 Descending Fort Worth Center

Login

Don't have an account? Register now (free) for customized features, flight alerts, and more!